createdAt,value
2017-05-18T00:01:52.667Z,13.90
2017-05-18T00:04:21.641Z,13.80
2017-05-18T00:06:50.640Z,13.80
2017-05-18T00:09:19.614Z,13.70
2017-05-18T00:11:48.932Z,13.70
2017-05-18T00:14:17.921Z,13.60
2017-05-18T00:16:46.912Z,13.60
2017-05-18T00:19:15.900Z,13.60
2017-05-18T00:21:44.830Z,13.60
2017-05-18T00:24:14.846Z,13.50
2017-05-18T00:26:43.828Z,13.50
2017-05-18T00:29:12.813Z,13.50
2017-05-18T00:31:41.805Z,13.50
2017-05-18T00:34:10.769Z,13.50
2017-05-18T00:36:40.122Z,13.50
2017-05-18T00:39:09.099Z,13.50
2017-05-18T00:41:38.819Z,13.40
2017-05-18T00:44:08.202Z,13.40
2017-05-18T00:46:38.142Z,13.40
2017-05-18T00:49:07.130Z,13.40
2017-05-18T00:51:36.127Z,13.40
2017-05-18T00:54:05.092Z,13.30
2017-05-18T00:56:35.195Z,13.30
2017-05-18T00:59:04.139Z,13.30
2017-05-18T01:01:33.192Z,13.20
2017-05-18T01:04:02.913Z,13.20
2017-05-18T01:06:32.634Z,13.20
2017-05-18T01:09:02.006Z,13.20
2017-05-18T01:11:31.725Z,13.10
2017-05-18T01:14:01.463Z,13.10
2017-05-18T01:16:31.176Z,13.10
2017-05-18T01:19:00.152Z,13.10
2017-05-18T01:21:29.396Z,13.10
2017-05-18T01:23:58.375Z,13.10
2017-05-18T01:26:27.336Z,13.00
2017-05-18T01:28:56.682Z,13.00
2017-05-18T01:31:25.638Z,12.90
2017-05-18T01:33:54.656Z,12.90
2017-05-18T01:36:23.594Z,12.90
2017-05-18T01:38:52.564Z,12.90
2017-05-18T01:41:22.635Z,12.80
2017-05-18T01:43:51.625Z,12.80
2017-05-18T01:46:20.602Z,12.80
2017-05-18T01:48:49.588Z,12.80
2017-05-18T01:51:18.609Z,12.80
2017-05-18T01:53:47.921Z,12.80
2017-05-18T01:56:16.877Z,12.70
2017-05-18T01:58:45.832Z,12.70
2017-05-18T02:01:15.904Z,12.70
2017-05-18T02:03:44.873Z,12.70
2017-05-18T02:06:13.837Z,12.70
2017-05-18T02:08:42.834Z,12.60
2017-05-18T02:11:11.812Z,12.60
2017-05-18T02:13:41.907Z,12.60
2017-05-18T02:16:10.869Z,12.50
2017-05-18T02:18:39.849Z,12.50
2017-05-18T02:21:09.180Z,12.50
2017-05-18T02:23:38.116Z,12.40
2017-05-18T02:26:07.092Z,12.40
2017-05-18T02:28:36.831Z,12.40
2017-05-18T02:31:05.793Z,12.40
2017-05-18T02:33:35.772Z,12.30
2017-05-18T02:36:04.741Z,12.30
2017-05-18T02:38:33.729Z,12.30
2017-05-18T02:41:02.723Z,12.30
2017-05-18T02:43:31.689Z,12.30
2017-05-18T02:46:01.033Z,12.30
2017-05-18T02:48:30.853Z,12.20
2017-05-18T02:50:59.911Z,12.20
2017-05-18T02:53:28.854Z,12.20
2017-05-18T02:55:57.912Z,12.20
2017-05-18T02:58:26.846Z,12.20
2017-05-18T03:00:56.917Z,12.10
2017-05-18T03:03:25.864Z,12.10
2017-05-18T03:05:54.821Z,12.10
2017-05-18T03:08:23.807Z,12.10
2017-05-18T03:10:52.772Z,12.10
2017-05-18T03:13:22.051Z,12.00
2017-05-18T03:15:51.017Z,12.00
2017-05-18T03:18:20.728Z,12.00
2017-05-18T03:20:49.702Z,12.00
2017-05-18T03:23:23.159Z,12.00
2017-05-18T03:25:52.704Z,12.00
2017-05-18T03:28:21.708Z,11.90
2017-05-18T03:30:50.673Z,11.90
2017-05-18T03:33:19.733Z,11.90
2017-05-18T03:35:48.708Z,11.90
2017-05-18T03:38:17.976Z,11.90
2017-05-18T03:40:47.687Z,11.90
2017-05-18T03:43:17.429Z,11.90
2017-05-18T03:45:46.428Z,11.90
2017-05-18T03:48:15.402Z,11.90
2017-05-18T03:50:44.737Z,11.90
2017-05-18T03:53:13.700Z,11.90
2017-05-18T03:55:42.689Z,11.90
2017-05-18T03:58:11.678Z,11.90
2017-05-18T04:00:40.636Z,12.00
2017-05-18T04:03:10.632Z,11.90
2017-05-18T04:05:39.605Z,12.00
2017-05-18T04:08:08.582Z,12.00
2017-05-18T04:10:37.575Z,12.00
2017-05-18T04:13:06.560Z,12.10
2017-05-18T04:15:35.870Z,12.10
2017-05-18T04:18:04.851Z,12.20
2017-05-18T04:20:33.812Z,12.20
2017-05-18T04:23:02.816Z,12.20
2017-05-18T04:25:31.780Z,12.30
2017-05-18T04:28:01.275Z,12.40
2017-05-18T04:30:30.998Z,12.40
2017-05-18T04:32:59.998Z,12.40
2017-05-18T04:35:28.998Z,12.50
2017-05-18T04:37:57.992Z,12.60
2017-05-18T04:40:27.352Z,12.60
2017-05-18T04:42:57.058Z,12.70
2017-05-18T04:45:27.050Z,12.70
2017-05-18T04:47:56.013Z,12.80
2017-05-18T04:50:24.990Z,12.90
2017-05-18T04:52:53.974Z,12.90
2017-05-18T04:55:22.958Z,12.90
2017-05-18T04:57:52.312Z,13.00
2017-05-18T05:00:21.291Z,13.00
2017-05-18T05:02:50.220Z,13.10
2017-05-18T05:05:20.212Z,13.20
2017-05-18T05:07:49.179Z,13.60
2017-05-18T05:10:18.161Z,13.90
2017-05-18T05:12:47.152Z,14.30
2017-05-18T05:15:16.142Z,14.50
2017-05-18T05:17:45.404Z,14.60
2017-05-18T05:20:14.375Z,14.60
2017-05-18T05:22:44.093Z,14.70
2017-05-18T05:25:13.825Z,14.90
2017-05-18T05:27:42.794Z,15.10
2017-05-18T05:30:12.151Z,15.20
2017-05-18T05:32:41.127Z,15.30
2017-05-18T05:35:10.110Z,15.50
2017-05-18T05:37:39.341Z,15.60
2017-05-18T05:40:08.305Z,15.70
2017-05-18T05:42:37.387Z,15.80
2017-05-18T05:45:06.417Z,15.90
2017-05-18T05:50:30.075Z,16.10
2017-05-18T05:52:59.330Z,16.20
2017-05-18T05:55:29.037Z,16.20
2017-05-18T05:57:59.055Z,16.10
2017-05-18T06:00:28.759Z,16.10
2017-05-18T06:02:58.862Z,16.20
2017-05-18T06:05:27.744Z,16.30
2017-05-18T06:07:56.751Z,16.40
2017-05-18T06:10:25.728Z,16.40
2017-05-18T06:12:54.698Z,16.40
2017-05-18T06:15:24.221Z,16.60
2017-05-18T06:17:53.194Z,16.70
2017-05-18T06:20:22.166Z,16.80
2017-05-18T06:22:51.143Z,16.90
2017-05-18T06:25:20.137Z,17.00
2017-05-18T06:27:49.398Z,17.10
2017-05-18T06:30:19.118Z,17.10
2017-05-18T06:32:48.882Z,17.20
2017-05-18T06:35:17.938Z,17.30
2017-05-18T06:37:46.931Z,17.40
2017-05-18T06:40:16.191Z,17.40
2017-05-18T06:42:45.156Z,17.50
2017-05-18T06:45:14.184Z,17.50
2017-05-18T06:47:43.942Z,17.50
2017-05-18T06:50:12.913Z,17.60
2017-05-18T06:52:42.250Z,17.80
2017-05-18T06:55:11.222Z,18.00
2017-05-18T06:57:40.130Z,18.00
2017-05-18T07:00:09.970Z,18.10
2017-05-18T07:02:39.709Z,18.20
2017-05-18T07:05:08.992Z,18.30
2017-05-18T07:07:38.735Z,18.40
2017-05-18T07:10:07.748Z,18.50
2017-05-18T07:12:37.037Z,18.50
2017-05-18T07:15:06.021Z,18.60
2017-05-18T07:17:34.994Z,18.70
2017-05-18T07:20:03.985Z,18.80
2017-05-18T07:22:32.940Z,19.00
2017-05-18T07:25:02.954Z,19.10
2017-05-18T07:27:31.915Z,19.20
2017-05-18T07:30:00.889Z,19.30
2017-05-18T07:32:29.951Z,19.40
2017-05-18T07:34:59.146Z,19.50
2017-05-18T07:37:29.426Z,19.50
2017-05-18T07:39:58.432Z,19.60
2017-05-18T07:42:27.416Z,19.70
2017-05-18T07:44:56.520Z,19.80
2017-05-18T07:47:26.257Z,19.90
2017-05-18T07:49:55.222Z,20.00
2017-05-18T07:52:24.948Z,20.10
2017-05-18T07:54:54.670Z,20.20
2017-05-18T07:57:24.010Z,20.40
2017-05-18T07:59:52.972Z,20.60
2017-05-18T08:02:21.922Z,20.70
2017-05-18T08:04:51.620Z,20.80
2017-05-18T08:07:21.333Z,20.90
2017-05-18T08:09:50.649Z,21.10
2017-05-18T08:12:20.355Z,21.20
2017-05-18T08:14:50.199Z,21.30
2017-05-18T08:17:19.164Z,21.50
2017-05-18T08:19:48.136Z,21.60
2017-05-18T08:22:17.871Z,21.80
2017-05-18T08:24:49.785Z,21.90
2017-05-18T08:32:51.936Z,22.20
2017-05-18T08:35:20.876Z,22.20
2017-05-18T08:37:50.149Z,22.40
2017-05-18T08:43:22.756Z,22.50
2017-05-18T08:48:33.578Z,22.70
2017-05-18T08:56:53.130Z,23.00
2017-05-18T08:59:22.918Z,23.10
2017-05-18T09:02:05.242Z,23.10
2017-05-18T09:04:35.271Z,23.30
2017-05-18T09:09:54.555Z,23.40
2017-05-18T09:12:24.280Z,23.50
2017-05-18T09:14:53.269Z,23.70
2017-05-18T09:17:44.321Z,23.80
2017-05-18T09:20:13.312Z,23.90
2017-05-18T09:22:52.949Z,24.00
2017-05-18T09:25:21.914Z,24.10
2017-05-18T09:28:08.093Z,24.20
2017-05-18T09:30:41.472Z,24.40
2017-05-18T09:33:10.964Z,24.40
2017-05-18T09:36:04.806Z,24.50
2017-05-18T09:38:38.046Z,24.60
2017-05-18T09:41:09.505Z,24.60
2017-05-18T09:43:53.645Z,24.60
2017-05-18T09:46:22.613Z,24.70
2017-05-18T09:48:51.571Z,24.80
2017-05-18T09:54:15.580Z,25.20
2017-05-18T09:56:44.553Z,25.50
2017-05-18T09:59:13.505Z,25.70
2017-05-18T10:01:42.586Z,26.00
2017-05-18T10:04:11.545Z,26.20
2017-05-18T10:06:40.519Z,26.40
2017-05-18T10:09:09.487Z,26.70
2017-05-18T10:11:39.180Z,27.00
2017-05-18T10:14:08.386Z,27.20
2017-05-18T10:16:37.364Z,27.50
2017-05-18T10:19:06.321Z,27.80
2017-05-18T10:21:35.288Z,28.20
2017-05-18T10:24:04.251Z,28.30
2017-05-18T10:26:34.242Z,28.50
2017-05-18T10:29:03.208Z,28.70
2017-05-18T10:31:32.163Z,28.50
2017-05-18T10:34:01.876Z,28.30
2017-05-18T10:36:30.923Z,28.40
2017-05-18T10:39:00.213Z,28.60
2017-05-18T10:41:29.178Z,28.80
2017-05-18T10:43:58.151Z,29.00
2017-05-18T10:46:27.140Z,29.10
2017-05-18T10:48:56.108Z,29.40
2017-05-18T10:51:25.831Z,29.60
2017-05-18T10:53:54.711Z,29.90
2017-05-18T10:56:23.710Z,30.00
2017-05-18T10:58:53.396Z,30.20
2017-05-18T11:01:22.610Z,30.40
2017-05-18T11:03:52.307Z,30.40
2017-05-18T11:06:21.247Z,30.60
2017-05-18T11:08:50.545Z,30.80
2017-05-18T11:11:19.543Z,31.00
2017-05-18T11:13:48.555Z,31.10
2017-05-18T11:16:17.941Z,31.20
2017-05-18T11:18:46.894Z,31.20
2017-05-18T11:21:15.849Z,31.10
2017-05-18T11:23:44.818Z,31.10
2017-05-18T11:26:13.828Z,31.10
2017-05-18T11:28:43.098Z,31.40
2017-05-18T11:31:12.211Z,31.80
2017-05-18T11:33:41.193Z,32.20
2017-05-18T11:36:10.483Z,32.50
2017-05-18T11:38:39.434Z,32.60
2017-05-18T11:41:08.404Z,32.90
2017-05-18T11:43:37.636Z,33.10
2017-05-18T11:46:06.599Z,33.20
2017-05-18T11:48:39.331Z,33.40
2017-05-18T11:51:08.286Z,33.60
2017-05-18T11:53:37.243Z,33.60
2017-05-18T11:56:06.221Z,33.50
2017-05-18T11:58:35.177Z,33.20
2017-05-18T12:01:04.134Z,32.70
2017-05-18T12:03:33.840Z,32.60
2017-05-18T12:06:03.201Z,32.70
2017-05-18T12:08:32.149Z,33.00
2017-05-18T12:11:01.103Z,33.10
2017-05-18T12:13:30.390Z,33.40
2017-05-18T12:15:59.357Z,33.50
2017-05-18T12:18:28.309Z,33.60
2017-05-18T12:20:57.284Z,33.60
2017-05-18T12:23:26.984Z,33.60
2017-05-18T12:25:56.712Z,33.40
2017-05-18T12:28:25.682Z,33.40
2017-05-18T12:30:55.396Z,33.70
2017-05-18T12:33:28.166Z,34.00
2017-05-18T12:35:57.141Z,34.20
2017-05-18T12:38:26.120Z,34.30
2017-05-18T12:40:55.083Z,34.40
2017-05-18T12:43:24.032Z,34.50
2017-05-18T12:45:53.034Z,34.70
2017-05-18T12:48:22.717Z,34.70
2017-05-18T12:50:51.699Z,34.90
2017-05-18T12:53:20.645Z,35.10
2017-05-18T12:55:49.621Z,35.30
2017-05-18T12:58:19.355Z,35.40
2017-05-18T13:00:48.676Z,35.50
2017-05-18T13:03:17.571Z,35.50
2017-05-18T13:05:47.328Z,35.40
2017-05-18T13:08:16.389Z,35.40
2017-05-18T13:10:45.325Z,35.60
2017-05-18T13:13:14.314Z,35.70
2017-05-18T13:15:43.291Z,35.90
2017-05-18T13:18:13.001Z,36.10
2017-05-18T13:20:42.719Z,36.20
2017-05-18T13:23:11.843Z,36.50
2017-05-18T13:25:40.820Z,36.50
2017-05-18T13:28:09.800Z,36.30
2017-05-18T13:30:38.795Z,36.00
2017-05-18T13:33:07.772Z,35.60
2017-05-18T13:35:36.733Z,35.40
2017-05-18T13:38:05.732Z,35.50
2017-05-18T13:40:35.434Z,35.70
2017-05-18T13:43:04.720Z,36.00
2017-05-18T13:45:33.661Z,36.30
2017-05-18T13:48:02.638Z,36.50
2017-05-18T13:50:31.617Z,36.60
2017-05-18T13:53:01.312Z,36.60
2017-05-18T13:55:30.277Z,36.60
2017-05-18T13:57:59.151Z,36.40
2017-05-18T14:00:28.244Z,36.10
2017-05-18T14:02:57.200Z,35.70
2017-05-18T14:05:26.173Z,35.50
2017-05-18T14:07:55.129Z,35.70
2017-05-18T14:10:24.437Z,35.90
2017-05-18T14:12:53.400Z,36.30
2017-05-18T14:15:22.429Z,36.40
2017-05-18T14:17:51.419Z,36.20
2017-05-18T14:20:20.361Z,35.90
2017-05-18T14:22:49.361Z,35.70
2017-05-18T14:25:18.311Z,35.40
2017-05-18T14:27:48.025Z,35.20
2017-05-18T14:30:17.736Z,35.20
2017-05-18T14:32:47.443Z,35.30
2017-05-18T14:35:17.143Z,35.30
2017-05-18T14:37:46.873Z,35.30
2017-05-18T14:40:15.877Z,35.20
2017-05-18T14:42:44.923Z,35.40
2017-05-18T14:45:13.922Z,35.70
2017-05-18T14:47:43.635Z,35.80
2017-05-18T14:50:13.403Z,36.00
2017-05-18T14:52:42.702Z,36.10
2017-05-18T14:55:11.659Z,36.10
2017-05-18T14:57:40.598Z,36.10
2017-05-18T15:00:09.571Z,36.10
2017-05-18T15:02:38.703Z,36.10
2017-05-18T15:05:07.716Z,36.00
2017-05-18T15:07:36.687Z,35.90
2017-05-18T15:10:12.971Z,35.60
2017-05-18T15:12:41.940Z,35.60
2017-05-18T15:15:12.056Z,35.50
2017-05-18T15:17:41.017Z,35.50
2017-05-18T15:20:09.987Z,35.60
2017-05-18T15:22:38.969Z,35.70
2017-05-18T15:25:07.920Z,35.80
2017-05-18T15:27:38.021Z,35.80
2017-05-18T15:30:06.989Z,36.00
2017-05-18T15:32:35.928Z,36.10
2017-05-18T15:35:05.638Z,36.20
2017-05-18T15:37:35.350Z,36.10
2017-05-18T15:40:05.079Z,36.10
2017-05-18T15:42:34.048Z,36.10
2017-05-18T15:45:03.757Z,36.10
2017-05-18T15:47:33.450Z,36.00
2017-05-18T15:50:03.422Z,35.80
2017-05-18T15:52:32.377Z,35.60
2017-05-18T15:55:01.338Z,35.50
2017-05-18T15:57:31.054Z,35.40
2017-05-18T16:00:00.755Z,35.50
2017-05-18T16:02:30.032Z,35.60
2017-05-18T16:04:59.043Z,35.70
2017-05-18T16:07:28.789Z,35.70
2017-05-18T16:09:57.855Z,35.80
2017-05-18T16:12:27.550Z,35.40
2017-05-18T16:14:56.537Z,35.10
2017-05-18T16:17:25.505Z,34.90
2017-05-18T16:19:54.820Z,34.80
2017-05-18T16:22:23.784Z,34.80
2017-05-18T16:24:52.660Z,34.90
2017-05-18T16:27:21.692Z,34.90
2017-05-18T16:29:50.671Z,34.90
2017-05-18T16:32:19.647Z,34.90
2017-05-18T16:34:48.617Z,34.90
2017-05-18T16:37:17.911Z,34.80
2017-05-18T16:39:46.864Z,34.70
2017-05-18T16:42:15.835Z,34.40
2017-05-18T16:44:44.847Z,34.20
2017-05-18T16:47:13.813Z,34.10
2017-05-18T16:49:42.806Z,34.00
2017-05-18T16:52:11.766Z,33.80
2017-05-18T16:54:40.754Z,33.70
2017-05-18T16:57:09.786Z,33.60
2017-05-18T16:59:38.759Z,33.50
2017-05-18T17:02:07.718Z,33.20
2017-05-18T17:04:36.690Z,33.20
2017-05-18T17:07:06.395Z,33.00
2017-05-18T17:09:36.126Z,32.90
2017-05-18T17:12:05.102Z,32.60
2017-05-18T17:14:34.829Z,32.40
2017-05-18T17:17:03.790Z,32.20
2017-05-18T17:19:33.585Z,31.90
2017-05-18T17:22:02.536Z,31.60
2017-05-18T17:24:31.508Z,31.20
2017-05-18T17:27:00.458Z,30.90
2017-05-18T17:29:29.477Z,30.60
2017-05-18T17:31:59.186Z,30.30
2017-05-18T17:34:28.147Z,30.00
2017-05-18T17:36:57.130Z,29.70
2017-05-18T17:39:26.417Z,29.40
2017-05-18T17:41:55.379Z,29.20
2017-05-18T17:44:24.347Z,28.80
2017-05-18T17:46:53.335Z,28.50
2017-05-18T17:49:22.306Z,28.20
2017-05-18T17:51:52.042Z,28.00
2017-05-18T17:54:21.040Z,27.80
2017-05-18T17:56:50.016Z,27.60
2017-05-18T17:59:19.703Z,27.40
2017-05-18T18:01:48.692Z,27.20
2017-05-18T18:04:17.652Z,26.90
2017-05-18T18:06:46.631Z,26.70
2017-05-18T18:09:15.601Z,26.50
2017-05-18T18:11:44.594Z,26.20
2017-05-18T18:14:13.547Z,26.00
2017-05-18T18:16:42.799Z,25.80
2017-05-18T18:19:11.755Z,25.60
2017-05-18T18:21:41.455Z,25.30
2017-05-18T18:24:11.187Z,25.10
2017-05-18T18:26:40.152Z,25.00
2017-05-18T18:29:09.915Z,24.70
2017-05-18T18:31:38.883Z,24.60
2017-05-18T18:34:07.860Z,24.40
2017-05-18T18:36:36.838Z,24.20
2017-05-18T18:39:06.569Z,23.90
2017-05-18T18:41:35.528Z,23.80
2017-05-18T18:44:05.628Z,23.60
2017-05-18T18:46:34.626Z,23.50
2017-05-18T18:49:04.350Z,23.40
2017-05-18T18:51:34.068Z,23.20
2017-05-18T18:54:03.773Z,23.10
2017-05-18T18:56:33.503Z,23.10
2017-05-18T18:59:02.453Z,23.00
2017-05-18T19:01:31.433Z,22.90
2017-05-18T19:04:00.367Z,22.70
2017-05-18T19:06:29.331Z,22.70
2017-05-18T19:08:59.036Z,22.60
2017-05-18T19:11:28.011Z,22.50
2017-05-18T19:13:56.959Z,22.40
2017-05-18T19:16:25.981Z,22.20
2017-05-18T19:18:54.943Z,22.20
2017-05-18T19:21:23.961Z,22.00
2017-05-18T19:23:52.940Z,21.90
2017-05-18T19:26:22.249Z,21.80
2017-05-18T19:28:51.207Z,21.70
2017-05-18T19:31:20.173Z,21.60
2017-05-18T19:33:49.908Z,21.50
2017-05-18T19:36:18.875Z,21.40
2017-05-18T19:38:48.603Z,21.30
2017-05-18T19:41:17.575Z,21.20
2017-05-18T19:43:46.580Z,21.10
2017-05-18T19:46:15.613Z,21.10
2017-05-18T19:48:44.595Z,21.00
2017-05-18T19:51:13.565Z,20.90
2017-05-18T19:53:42.820Z,20.90
2017-05-18T19:56:11.776Z,20.80
2017-05-18T19:58:40.746Z,20.70
2017-05-18T20:01:09.748Z,20.60
2017-05-18T20:03:38.710Z,20.50
2017-05-18T20:06:07.693Z,20.50
2017-05-18T20:08:37.413Z,20.40
2017-05-18T20:11:06.684Z,20.40
2017-05-18T20:13:35.584Z,20.30
2017-05-18T20:16:04.456Z,20.30
2017-05-18T20:18:33.784Z,20.20
2017-05-18T20:21:02.712Z,20.10
2017-05-18T20:23:31.646Z,20.10
2017-05-18T20:26:01.327Z,20.00
2017-05-18T20:28:31.136Z,19.90
2017-05-18T20:31:00.096Z,19.90
2017-05-18T20:33:29.023Z,19.80
2017-05-18T20:35:58.269Z,19.80
2017-05-18T20:38:27.171Z,19.70
2017-05-18T20:40:56.081Z,19.70
2017-05-18T20:43:25.003Z,19.60
2017-05-18T20:45:54.672Z,19.50
2017-05-18T20:48:23.624Z,19.50
2017-05-18T20:50:52.526Z,19.40
2017-05-18T20:53:21.477Z,19.40
2017-05-18T20:55:51.152Z,19.30
2017-05-18T20:58:20.112Z,19.30
2017-05-18T21:00:49.035Z,19.20
2017-05-18T21:03:17.989Z,19.20
2017-05-18T21:05:46.899Z,19.10
2017-05-18T21:08:15.838Z,19.00
2017-05-18T21:10:45.511Z,18.90
2017-05-18T21:15:49.638Z,18.90
2017-05-18T21:18:18.587Z,18.80
2017-05-18T21:20:47.513Z,18.70
2017-05-18T21:23:16.452Z,18.60
2017-05-18T21:25:46.112Z,18.60
2017-05-18T21:28:15.434Z,18.60
2017-05-18T21:30:44.197Z,18.50
2017-05-18T21:33:13.177Z,18.50
2017-05-18T21:35:42.187Z,18.50
2017-05-18T21:38:11.109Z,18.40
2017-05-18T21:40:40.791Z,18.40
2017-05-18T21:43:09.722Z,18.40
2017-05-18T21:45:38.925Z,18.40
2017-05-18T21:48:07.846Z,18.30
2017-05-18T21:50:36.756Z,18.30
2017-05-18T21:53:05.717Z,18.30
2017-05-18T21:55:34.654Z,18.20
2017-05-18T21:58:03.608Z,18.30
2017-05-18T22:00:32.556Z,18.20
2017-05-18T22:03:01.522Z,18.20
2017-05-18T22:05:30.460Z,18.20
2017-05-18T22:07:59.691Z,18.10
2017-05-18T22:10:28.668Z,18.10
2017-05-18T22:12:57.637Z,18.00
2017-05-18T22:15:26.589Z,17.90
2017-05-18T22:17:55.569Z,17.90
2017-05-18T22:20:24.552Z,17.80
2017-05-18T22:22:54.287Z,17.80
2017-05-18T22:25:23.277Z,17.70
2017-05-18T22:27:52.263Z,17.70
2017-05-18T22:30:21.216Z,17.70
2017-05-18T22:32:50.203Z,17.70
2017-05-18T22:35:19.157Z,17.70
2017-05-18T22:37:48.147Z,17.70
2017-05-18T22:40:17.105Z,17.60
2017-05-18T22:42:46.076Z,17.60
2017-05-18T22:45:15.042Z,17.60
2017-05-18T22:47:44.311Z,17.50
2017-05-18T22:50:13.301Z,17.50
2017-05-18T22:52:42.286Z,17.50
2017-05-18T22:55:11.281Z,17.40
2017-05-18T22:57:40.238Z,17.40
2017-05-18T23:00:09.580Z,17.30
2017-05-18T23:02:38.540Z,17.30
2017-05-18T23:05:07.954Z,17.30
2017-05-18T23:07:37.665Z,17.20
2017-05-18T23:10:07.737Z,17.20
2017-05-18T23:12:36.703Z,17.10
2017-05-18T23:15:05.655Z,17.10
2017-05-18T23:17:35.395Z,17.10
2017-05-18T23:20:04.370Z,17.10
2017-05-18T23:22:33.370Z,17.10
2017-05-18T23:25:02.321Z,17.00
2017-05-18T23:27:31.615Z,17.00
2017-05-18T23:30:00.573Z,16.90
2017-05-18T23:32:29.544Z,16.90
2017-05-18T23:34:58.530Z,16.90
2017-05-18T23:37:27.504Z,16.80
2017-05-18T23:39:56.506Z,16.80
2017-05-18T23:42:25.475Z,16.80
2017-05-18T23:44:55.222Z,16.70
2017-05-18T23:47:24.198Z,16.70
2017-05-18T23:49:53.166Z,16.60
2017-05-18T23:52:22.117Z,16.60
2017-05-18T23:54:51.089Z,16.60
2017-05-18T23:57:20.060Z,16.60
2017-05-18T23:59:49.408Z,16.60
